Soper, Oklahoma
Current Conditions -  °F | °C
As of 6:35 PM on Friday 21 Nov 2014 (Local Time) from KHHW Reporting Station
Haze Haze  
Wind Chill: 59°   Ceiling: 300
Heat Index: 59°   Visibility: 1mi
Dew Point: 57°   Wind: 9mph
Humidity: 94%   Direction: 130°SE
Pressure: 30.11"   Gusts: NA
Location:  34.03°N, 95.7°W
Report Text: KHHW 220035Z AUTO 13008KT 1SM BR OVC003 15/14 A3011 RMK AO2 T01500140
Loading
Personal Weather Stations






























Interactive Weather Map New forecast layout! Learn more

10-Day Weather Forecast

Advertisements
Track Severe Weather on mobile